createdAt,value
2019-03-17T00:04:40.928Z,78.485107
2019-03-17T00:10:03.709Z,79.199219
2019-03-17T00:15:27.071Z,79.095459
2019-03-17T00:20:49.708Z,78.997803
2019-03-17T00:26:12.486Z,78.686523
2019-03-17T00:31:35.213Z,78.790283
2019-03-17T00:36:57.931Z,79.095459
2019-03-17T00:42:20.679Z,78.790283
2019-03-17T00:47:43.348Z,78.686523
2019-03-17T00:53:06.240Z,78.686523
2019-03-17T00:58:29.121Z,77.935791
2019-03-17T01:03:51.895Z,78.137207
2019-03-17T01:09:15.638Z,78.588867
2019-03-17T01:14:38.274Z,78.686523
2019-03-17T01:20:00.993Z,78.625488
2019-03-17T01:25:23.722Z,78.625488
2019-03-17T01:30:46.457Z,78.55835
2019-03-17T01:36:10.166Z,78.149414
2019-03-17T01:41:32.884Z,78.045654
2019-03-17T01:46:56.133Z,77.636719
2019-03-17T01:52:18.773Z,76.983643
2019-03-17T01:57:41.456Z,76.269531
2019-03-17T02:03:04.311Z,76.782227
2019-03-17T02:08:28.337Z,76.062012
2019-03-17T02:13:51.026Z,76.12915
2019-03-17T02:19:14.585Z,76.269531
2019-03-17T02:24:37.357Z,76.367188
2019-03-17T02:30:00.035Z,76.062012
2019-03-17T02:35:37.581Z,74.285889
2019-03-17T02:40:46.683Z,73.675537
2019-03-17T02:46:09.310Z,74.11499
2019-03-17T02:51:31.946Z,73.059082
2019-03-17T02:56:54.550Z,74.32251
2019-03-17T03:02:17.156Z,74.42627
2019-03-17T03:07:39.740Z,74.627686
2019-03-17T03:13:02.378Z,75.860596
2019-03-17T03:18:24.966Z,75.756836
2019-03-17T03:23:47.657Z,75.958252
2019-03-17T03:29:10.248Z,75.3479
2019-03-17T03:34:32.935Z,74.835205
2019-03-17T03:39:56.380Z,74.530029
2019-03-17T03:45:19.048Z,74.32251
2019-03-17T03:50:41.656Z,74.32251
2019-03-17T03:56:04.321Z,74.969482
2019-03-17T04:01:26.939Z,74.768066
2019-03-17T04:06:49.558Z,75.585938
2019-03-17T04:12:12.165Z,75.994873
2019-03-17T04:17:34.830Z,76.507568
2019-03-17T04:22:57.410Z,75.994873
2019-03-17T04:28:21.038Z,75.994873
2019-03-17T04:33:43.614Z,77.325439
2019-03-17T04:39:06.258Z,78.387451
2019-03-17T04:44:28.856Z,80.133057
2019-03-17T04:49:51.478Z,82.220459
2019-03-17T04:55:14.103Z,84.613037
2019-03-17T05:00:37.680Z,84.716797
2019-03-17T05:06:00.301Z,86.090088
2019-03-17T05:11:22.894Z,88.287354
2019-03-17T05:16:45.551Z,90.588379
2019-03-17T05:22:08.141Z,90.075684
2019-03-17T05:27:30.785Z,90.734863
2019-03-17T05:32:53.379Z,91.967773
2019-03-17T05:38:16.045Z,92.730713
2019-03-17T05:43:38.644Z,93.859863
2019-03-17T05:49:01.325Z,94.830322
2019-03-17T05:54:23.925Z,95.648193
2019-03-17T05:59:46.605Z,96.679688
2019-03-17T06:05:09.207Z,97.399902
2019-03-17T06:10:31.872Z,98.162842
2019-03-17T06:15:56.244Z,97.912598
2019-03-17T06:21:18.832Z,97.912598
2019-03-17T06:26:41.453Z,97.912598
2019-03-17T06:32:04.086Z,98.632812
2019-03-17T06:37:31.137Z,98.736572
2019-03-17T06:42:49.409Z,97.607422
2019-03-17T06:48:11.983Z,97.607422
2019-03-17T06:53:34.654Z,97.808838
2019-03-17T06:58:57.249Z,98.529053
2019-03-17T07:04:21.405Z,98.632812
2019-03-17T07:09:44.339Z,99.603271
2019-03-17T07:15:07.607Z,99.993896
2019-03-17T07:20:40.314Z,99.993896
2019-03-17T07:26:11.948Z,99.993896
2019-03-17T07:31:34.978Z,99.993896
2019-03-17T07:36:57.667Z,99.993896
2019-03-17T07:42:20.349Z,99.035645
2019-03-17T07:47:43.200Z,98.724365
2019-03-17T07:53:06.755Z,98.455811
2019-03-17T07:58:29.384Z,99.700928
2019-03-17T08:03:52.165Z,99.993896
2019-03-17T08:09:14.856Z,99.993896
2019-03-17T08:14:37.815Z,98.370361
2019-03-17T08:20:00.541Z,98.840332
2019-03-17T08:25:23.234Z,95.843506
2019-03-17T08:30:52.804Z,96.832275
2019-03-17T08:36:09.509Z,96.832275
2019-03-17T08:41:32.228Z,97.344971
2019-03-17T08:46:55.064Z,95.343018
2019-03-17T08:52:17.796Z,93.75
2019-03-17T08:57:40.517Z,93.54248
2019-03-17T09:03:04.206Z,91.278076
2019-03-17T09:08:34.616Z,92.102051
2019-03-17T09:13:50.626Z,91.174316
2019-03-17T09:19:13.277Z,91.894531
2019-03-17T09:24:35.922Z,91.479492
2019-03-17T09:29:58.617Z,92.059326
2019-03-17T09:35:21.349Z,90.100098
2019-03-17T09:40:44.006Z,89.953613
2019-03-17T09:46:06.788Z,87.237549
2019-03-17T09:51:29.656Z,87.750244
2019-03-17T09:56:53.395Z,89.050293
2019-03-17T10:02:16.497Z,87.872314
2019-03-17T10:07:39.539Z,86.022949
2019-03-17T10:13:02.376Z,86.16333
2019-03-17T10:18:25.572Z,87.70752
2019-03-17T10:23:48.227Z,87.341309
2019-03-17T10:29:10.862Z,87.896729
2019-03-17T10:34:33.548Z,87.06665
2019-03-17T10:39:56.187Z,85.302734
2019-03-17T10:45:18.879Z,83.166504
2019-03-17T10:50:49.241Z,83.92334
2019-03-17T10:56:05.276Z,87.835693
2019-03-17T11:01:28.088Z,83.514404
2019-03-17T11:06:51.027Z,88.946533
2019-03-17T11:12:13.786Z,95.220947
2019-03-17T11:17:36.465Z,96.362305
2019-03-17T11:22:59.087Z,94.781494
2019-03-17T11:28:21.790Z,89.727783
2019-03-17T11:33:44.506Z,90.032959
2019-03-17T11:39:07.312Z,86.499023
2019-03-17T11:44:30.654Z,79.840088
2019-03-17T11:49:53.450Z,80.34668
2019-03-17T11:55:16.185Z,76.818848
2019-03-17T12:00:39.281Z,76.68457
2019-03-17T12:06:01.972Z,74.499512
2019-03-17T12:11:24.797Z,74.835205
2019-03-17T12:16:47.523Z,68.31665
2019-03-17T12:22:10.331Z,68.725586
2019-03-17T12:27:32.960Z,67.62085
2019-03-17T12:32:55.707Z,62.548828
2019-03-17T12:38:18.349Z,67.669678
2019-03-17T12:43:41.029Z,60.723877
2019-03-17T12:49:03.743Z,61.340332
2019-03-17T12:54:27.701Z,61.71875
2019-03-17T12:59:50.591Z,59.765625
2019-03-17T13:05:14.482Z,63.861084
2019-03-17T13:10:37.177Z,67.590332
2019-03-17T13:15:59.831Z,68.231201
2019-03-17T13:21:22.467Z,68.511963
2019-03-17T13:26:45.816Z,69.805908
2019-03-17T13:32:09.313Z,76.965332
2019-03-17T13:37:32.041Z,85.516357
2019-03-17T13:42:54.670Z,86.895752
2019-03-17T13:48:17.425Z,84.570312
2019-03-17T13:53:40.088Z,84.222412
2019-03-17T13:59:02.776Z,84.942627
2019-03-17T14:04:26.340Z,83.117676
2019-03-17T14:09:49.095Z,81.085205
2019-03-17T14:15:11.860Z,81.45752
2019-03-17T14:20:34.770Z,79.437256
2019-03-17T14:25:57.509Z,81.109619
2019-03-17T14:31:20.195Z,79.119873
2019-03-17T14:36:42.939Z,77.203369
2019-03-17T14:42:05.623Z,75.970459
2019-03-17T14:47:28.334Z,75.732422
2019-03-17T14:52:51.045Z,75.866699
2019-03-17T14:58:13.828Z,75.695801
2019-03-17T15:03:37.165Z,77.484131
2019-03-17T15:09:00.214Z,81.878662
2019-03-17T15:14:23.895Z,85.827637
2019-03-17T15:19:46.662Z,82.58667
2019-03-17T15:25:09.461Z,79.125977
2019-03-17T15:30:33.203Z,72.924805
2019-03-17T15:35:55.833Z,67.175293
2019-03-17T15:41:19.089Z,75.939941
2019-03-17T15:46:41.121Z,77.453613
2019-03-17T15:52:03.790Z,78.399658
2019-03-17T15:57:27.392Z,77.13623
2019-03-17T16:02:50.657Z,69.104004
2019-03-17T16:08:13.265Z,69.628906
2019-03-17T16:13:35.895Z,65.179443
2019-03-17T16:18:58.714Z,63.879395
2019-03-17T16:24:21.514Z,57.250977
2019-03-17T16:29:44.227Z,60.919189
2019-03-17T16:35:06.877Z,63.635254
2019-03-17T16:40:29.515Z,64.385986
2019-03-17T16:45:52.120Z,67.431641
2019-03-17T16:51:14.812Z,67.462158
2019-03-17T16:56:38.074Z,64.855957
2019-03-17T17:02:00.955Z,63.897705
2019-03-17T17:07:25.780Z,65.39917
2019-03-17T17:12:48.680Z,67.254639
2019-03-17T17:18:11.469Z,69.451904
2019-03-17T17:23:34.414Z,68.52417
2019-03-17T17:28:57.397Z,71.850586
2019-03-17T17:34:20.265Z,70.233154
2019-03-17T17:39:43.354Z,72.363281
2019-03-17T17:45:06.094Z,72.088623
2019-03-17T17:50:28.945Z,72.912598
2019-03-17T17:55:51.714Z,70.74585
2019-03-17T18:01:14.463Z,71.569824
2019-03-17T18:06:37.340Z,71.673584
2019-03-17T18:12:00.029Z,70.330811
2019-03-17T18:17:23.040Z,70.227051
2019-03-17T18:22:45.967Z,70.953369
2019-03-17T18:28:08.878Z,73.291016
2019-03-17T18:33:31.667Z,72.290039
2019-03-17T18:38:54.928Z,72.912598
2019-03-17T18:44:17.935Z,70.294189
2019-03-17T18:49:40.911Z,70.19043
2019-03-17T18:55:12.435Z,70.739746
2019-03-17T19:00:36.292Z,72.357178
2019-03-17T19:05:59.285Z,71.221924
2019-03-17T19:11:22.224Z,73.010254
2019-03-17T19:16:45.034Z,74.462891
2019-03-17T19:22:09.750Z,75.427246
2019-03-17T19:27:32.570Z,76.324463
2019-03-17T19:32:55.202Z,75.152588
2019-03-17T19:38:17.939Z,75.878906
2019-03-17T19:43:41.746Z,76.428223
2019-03-17T19:49:04.609Z,78.265381
2019-03-17T19:54:27.486Z,79.02832
2019-03-17T19:59:50.147Z,78.125
2019-03-17T20:05:12.771Z,78.643799
2019-03-17T20:10:35.785Z,80.682373
2019-03-17T20:15:58.415Z,81.097412
2019-03-17T20:21:21.058Z,80.889893
2019-03-17T20:26:43.667Z,81.658936
2019-03-17T20:32:06.288Z,81.201172
2019-03-17T20:37:28.947Z,80.749512
2019-03-17T20:42:51.583Z,80.438232
2019-03-17T20:48:14.189Z,80.749512
2019-03-17T20:53:36.904Z,80.92041
2019-03-17T20:58:59.550Z,80.609131
2019-03-17T21:04:22.191Z,79.949951
2019-03-17T21:09:44.788Z,80.505371
2019-03-17T21:15:08.062Z,81.164551
2019-03-17T21:20:30.694Z,81.47583
2019-03-17T21:25:53.313Z,82.446289
2019-03-17T21:31:15.953Z,81.646729
2019-03-17T21:36:38.561Z,81.68335
2019-03-17T21:42:01.143Z,82.305908
2019-03-17T21:47:23.795Z,82.409668
2019-03-17T21:52:46.401Z,83.135986
2019-03-17T21:58:09.035Z,84.106445
2019-03-17T22:03:31.637Z,84.521484
2019-03-17T22:08:54.952Z,86.224365
2019-03-17T22:14:17.504Z,85.601807
2019-03-17T22:19:40.277Z,85.290527
2019-03-17T22:25:02.852Z,85.186768
2019-03-17T22:30:27.128Z,85.949707
2019-03-17T22:35:49.750Z,86.51123
2019-03-17T22:41:12.438Z,87.585449
2019-03-17T22:46:35.661Z,87.652588
2019-03-17T22:51:58.287Z,87.792969
2019-03-17T22:57:20.972Z,88.311768
2019-03-17T23:02:45.558Z,88.000488
2019-03-17T23:08:08.132Z,88.311768
2019-03-17T23:13:30.771Z,88.977051
2019-03-17T23:18:53.382Z,89.39209
2019-03-17T23:24:16.354Z,89.49585
2019-03-17T23:29:39.004Z,90.124512
2019-03-17T23:35:01.621Z,90.020752
2019-03-17T23:40:24.239Z,90.124512
2019-03-17T23:45:46.862Z,90.643311
2019-03-17T23:51:10.477Z,91.412354
2019-03-17T23:56:33.108Z,91.369629
